sensor_id;sensor_type;location;lat;lon;timestamp;P1;durP1;ratioP1;P2;durP2;ratioP2
71622;SDS011;59473;53.214;5.728;2023-02-28T00:00:04;7.90;;;4.30;;
71622;SDS011;59473;53.214;5.728;2023-02-28T00:02:36;10.23;;;4.65;;
71622;SDS011;59473;53.214;5.728;2023-02-28T00:05:02;9.75;;;4.25;;
71622;SDS011;59473;53.214;5.728;2023-02-28T00:07:28;8.63;;;4.15;;
71622;SDS011;59473;53.214;5.728;2023-02-28T00:09:53;7.73;;;4.53;;
71622;SDS011;59473;53.214;5.728;2023-02-28T00:12:19;9.90;;;4.73;;
71622;SDS011;59473;53.214;5.728;2023-02-28T00:14:44;9.40;;;4.90;;
71622;SDS011;59473;53.214;5.728;2023-02-28T00:17:09;9.10;;;5.20;;
71622;SDS011;59473;53.214;5.728;2023-02-28T00:19:34;11.10;;;4.67;;
71622;SDS011;59473;53.214;5.728;2023-02-28T00:22:00;7.97;;;4.80;;
71622;SDS011;59473;53.214;5.728;2023-02-28T00:24:25;14.27;;;5.30;;
71622;SDS011;59473;53.214;5.728;2023-02-28T00:26:50;9.60;;;4.60;;
71622;SDS011;59473;53.214;5.728;2023-02-28T00:29:15;14.20;;;5.63;;
71622;SDS011;59473;53.214;5.728;2023-02-28T00:31:41;9.97;;;4.97;;
71622;SDS011;59473;53.214;5.728;2023-02-28T00:34:06;8.05;;;4.30;;
71622;SDS011;59473;53.214;5.728;2023-02-28T00:36:31;17.10;;;4.77;;
71622;SDS011;59473;53.214;5.728;2023-02-28T00:38:56;9.47;;;4.47;;
71622;SDS011;59473;53.214;5.728;2023-02-28T00:41:22;14.47;;;5.27;;
71622;SDS011;59473;53.214;5.728;2023-02-28T00:43:47;8.90;;;4.83;;
71622;SDS011;59473;53.214;5.728;2023-02-28T00:46:12;8.00;;;4.50;;
71622;SDS011;59473;53.214;5.728;2023-02-28T00:48:37;12.67;;;5.07;;
71622;SDS011;59473;53.214;5.728;2023-02-28T00:51:02;10.10;;;5.03;;
71622;SDS011;59473;53.214;5.728;2023-02-28T00:53:28;12.27;;;5.37;;
71622;SDS011;59473;53.214;5.728;2023-02-28T00:55:54;13.90;;;5.90;;
71622;SDS011;59473;53.214;5.728;2023-02-28T00:58:19;10.73;;;5.37;;
71622;SDS011;59473;53.214;5.728;2023-02-28T01:00:44;13.43;;;5.50;;
71622;SDS011;59473;53.214;5.728;2023-02-28T01:03:13;15.52;;;5.20;;
71622;SDS011;59473;53.214;5.728;2023-02-28T01:05:38;12.40;;;5.57;;
71622;SDS011;59473;53.214;5.728;2023-02-28T01:08:05;11.15;;;5.00;;
71622;SDS011;59473;53.214;5.728;2023-02-28T01:10:31;9.50;;;5.23;;
71622;SDS011;59473;53.214;5.728;2023-02-28T01:12:56;14.07;;;6.20;;
71622;SDS011;59473;53.214;5.728;2023-02-28T01:15:21;11.07;;;4.90;;
71622;SDS011;59473;53.214;5.728;2023-02-28T01:17:47;14.47;;;5.67;;
71622;SDS011;59473;53.214;5.728;2023-02-28T01:20:12;11.60;;;4.77;;
71622;SDS011;59473;53.214;5.728;2023-02-28T01:22:37;15.90;;;4.87;;
71622;SDS011;59473;53.214;5.728;2023-02-28T01:25:02;12.47;;;5.20;;
71622;SDS011;59473;53.214;5.728;2023-02-28T01:27:28;8.63;;;5.27;;
71622;SDS011;59473;53.214;5.728;2023-02-28T01:29:53;10.25;;;5.20;;
71622;SDS011;59473;53.214;5.728;2023-02-28T01:32:19;12.67;;;5.00;;
71622;SDS011;59473;53.214;5.728;2023-02-28T01:34:44;11.03;;;5.13;;
71622;SDS011;59473;53.214;5.728;2023-02-28T01:37:09;10.17;;;5.00;;
71622;SDS011;59473;53.214;5.728;2023-02-28T01:39:34;8.83;;;5.47;;
71622;SDS011;59473;53.214;5.728;2023-02-28T01:42:00;10.80;;;4.70;;
71622;SDS011;59473;53.214;5.728;2023-02-28T01:47:09;10.65;;;5.28;;
71622;SDS011;59473;53.214;5.728;2023-02-28T01:49:34;9.40;;;4.90;;
71622;SDS011;59473;53.214;5.728;2023-02-28T01:51:59;7.87;;;4.40;;
71622;SDS011;59473;53.214;5.728;2023-02-28T01:54:31;13.40;;;5.10;;
71622;SDS011;59473;53.214;5.728;2023-02-28T01:56:59;12.13;;;5.00;;
71622;SDS011;59473;53.214;5.728;2023-02-28T01:59:27;9.68;;;4.25;;
71622;SDS011;59473;53.214;5.728;2023-02-28T02:01:54;10.73;;;4.60;;
71622;SDS011;59473;53.214;5.728;2023-02-28T02:04:20;14.90;;;5.33;;
71622;SDS011;59473;53.214;5.728;2023-02-28T02:06:46;11.02;;;5.22;;
71622;SDS011;59473;53.214;5.728;2023-02-28T02:09:12;10.57;;;4.20;;
71622;SDS011;59473;53.214;5.728;2023-02-28T02:11:37;11.50;;;5.07;;
71622;SDS011;59473;53.214;5.728;2023-02-28T02:14:26;11.00;;;5.25;;
71622;SDS011;59473;53.214;5.728;2023-02-28T02:26:48;13.37;;;4.50;;
71622;SDS011;59473;53.214;5.728;2023-02-28T02:37:13;18.07;;;4.73;;
71622;SDS011;59473;53.214;5.728;2023-02-28T02:42:09;14.57;;;5.27;;
71622;SDS011;59473;53.214;5.728;2023-02-28T02:44:40;9.63;;;4.28;;
71622;SDS011;59473;53.214;5.728;2023-02-28T02:47:12;8.52;;;4.13;;
71622;SDS011;59473;53.214;5.728;2023-02-28T02:49:39;10.77;;;5.05;;
71622;SDS011;59473;53.214;5.728;2023-02-28T02:52:07;14.97;;;4.70;;
71622;SDS011;59473;53.214;5.728;2023-02-28T02:54:34;15.50;;;4.45;;
71622;SDS011;59473;53.214;5.728;2023-02-28T02:57:03;15.57;;;5.28;;
71622;SDS011;59473;53.214;5.728;2023-02-28T02:59:30;11.93;;;5.10;;
71622;SDS011;59473;53.214;5.728;2023-02-28T03:01:56;12.07;;;5.47;;
71622;SDS011;59473;53.214;5.728;2023-02-28T03:04:23;12.98;;;5.45;;
71622;SDS011;59473;53.214;5.728;2023-02-28T03:06:50;8.47;;;4.77;;
71622;SDS011;59473;53.214;5.728;2023-02-28T03:09:19;12.65;;;5.38;;
71622;SDS011;59473;53.214;5.728;2023-02-28T03:11:44;10.53;;;4.90;;
71622;SDS011;59473;53.214;5.728;2023-02-28T03:14:28;8.50;;;4.57;;
71622;SDS011;59473;53.214;5.728;2023-02-28T03:22:40;12.48;;;4.53;;
71622;SDS011;59473;53.214;5.728;2023-02-28T03:25:10;8.05;;;4.30;;
71622;SDS011;59473;53.214;5.728;2023-02-28T03:27:41;14.60;;;4.80;;
71622;SDS011;59473;53.214;5.728;2023-02-28T03:30:15;14.88;;;4.65;;
71622;SDS011;59473;53.214;5.728;2023-02-28T03:32:49;13.95;;;5.43;;
71622;SDS011;59473;53.214;5.728;2023-02-28T03:35:21;11.30;;;4.65;;
71622;SDS011;59473;53.214;5.728;2023-02-28T03:37:49;12.20;;;5.15;;
71622;SDS011;59473;53.214;5.728;2023-02-28T03:40:17;11.97;;;4.20;;
71622;SDS011;59473;53.214;5.728;2023-02-28T03:42:45;11.73;;;4.97;;
71622;SDS011;59473;53.214;5.728;2023-02-28T03:45:23;12.32;;;5.43;;
71622;SDS011;59473;53.214;5.728;2023-02-28T03:47:54;12.18;;;4.90;;
71622;SDS011;59473;53.214;5.728;2023-02-28T03:50:24;12.98;;;5.43;;
71622;SDS011;59473;53.214;5.728;2023-02-28T03:53:00;14.47;;;4.67;;
71622;SDS011;59473;53.214;5.728;2023-02-28T03:55:27;10.48;;;5.05;;
71622;SDS011;59473;53.214;5.728;2023-02-28T03:58:01;13.07;;;5.00;;
71622;SDS011;59473;53.214;5.728;2023-02-28T04:00:37;13.55;;;4.85;;
71622;SDS011;59473;53.214;5.728;2023-02-28T04:03:03;14.60;;;4.93;;
71622;SDS011;59473;53.214;5.728;2023-02-28T04:05:28;11.60;;;4.43;;
71622;SDS011;59473;53.214;5.728;2023-02-28T04:07:54;12.63;;;5.03;;
71622;SDS011;59473;53.214;5.728;2023-02-28T04:10:28;11.60;;;4.30;;
71622;SDS011;59473;53.214;5.728;2023-02-28T04:12:53;11.10;;;4.47;;
71622;SDS011;59473;53.214;5.728;2023-02-28T04:15:18;9.02;;;4.78;;
71622;SDS011;59473;53.214;5.728;2023-02-28T04:17:47;15.68;;;4.97;;
71622;SDS011;59473;53.214;5.728;2023-02-28T04:20:12;9.60;;;4.40;;
71622;SDS011;59473;53.214;5.728;2023-02-28T04:22:38;8.50;;;4.27;;
71622;SDS011;59473;53.214;5.728;2023-02-28T04:25:03;12.37;;;4.20;;
71622;SDS011;59473;53.214;5.728;2023-02-28T04:27:28;10.73;;;4.23;;
71622;SDS011;59473;53.214;5.728;2023-02-28T04:29:54;8.43;;;3.60;;
71622;SDS011;59473;53.214;5.728;2023-02-28T04:32:19;10.17;;;4.10;;
71622;SDS011;59473;53.214;5.728;2023-02-28T04:34:44;9.73;;;3.67;;
71622;SDS011;59473;53.214;5.728;2023-02-28T04:37:09;14.33;;;3.90;;
71622;SDS011;59473;53.214;5.728;2023-02-28T04:39:36;11.43;;;3.90;;
71622;SDS011;59473;53.214;5.728;2023-02-28T04:42:01;8.65;;;3.70;;
71622;SDS011;59473;53.214;5.728;2023-02-28T04:44:26;10.57;;;3.90;;
71622;SDS011;59473;53.214;5.728;2023-02-28T04:46:52;7.57;;;3.43;;
71622;SDS011;59473;53.214;5.728;2023-02-28T04:49:17;9.63;;;3.80;;
71622;SDS011;59473;53.214;5.728;2023-02-28T04:51:42;9.47;;;3.97;;
71622;SDS011;59473;53.214;5.728;2023-02-28T04:54:08;13.23;;;4.63;;
71622;SDS011;59473;53.214;5.728;2023-02-28T04:56:33;8.73;;;3.50;;
71622;SDS011;59473;53.214;5.728;2023-02-28T04:58:58;10.30;;;4.53;;
71622;SDS011;59473;53.214;5.728;2023-02-28T05:01:27;9.33;;;4.27;;
71622;SDS011;59473;53.214;5.728;2023-02-28T05:03:53;13.57;;;4.93;;
71622;SDS011;59473;53.214;5.728;2023-02-28T05:06:19;13.13;;;4.43;;
71622;SDS011;59473;53.214;5.728;2023-02-28T05:08:45;8.00;;;4.10;;
71622;SDS011;59473;53.214;5.728;2023-02-28T05:11:15;12.25;;;4.22;;
71622;SDS011;59473;53.214;5.728;2023-02-28T05:13:41;12.73;;;4.60;;
71622;SDS011;59473;53.214;5.728;2023-02-28T05:16:06;10.60;;;3.80;;
71622;SDS011;59473;53.214;5.728;2023-02-28T05:18:31;5.97;;;3.35;;
71622;SDS011;59473;53.214;5.728;2023-02-28T05:20:56;10.57;;;4.27;;
71622;SDS011;59473;53.214;5.728;2023-02-28T05:23:22;10.00;;;3.93;;
71622;SDS011;59473;53.214;5.728;2023-02-28T05:25:47;10.80;;;4.17;;
71622;SDS011;59473;53.214;5.728;2023-02-28T05:28:12;12.93;;;3.60;;
71622;SDS011;59473;53.214;5.728;2023-02-28T05:30:37;14.53;;;4.27;;
71622;SDS011;59473;53.214;5.728;2023-02-28T05:33:03;8.20;;;3.23;;
71622;SDS011;59473;53.214;5.728;2023-02-28T05:35:28;7.40;;;3.17;;
71622;SDS011;59473;53.214;5.728;2023-02-28T05:37:53;7.40;;;3.13;;
71622;SDS011;59473;53.214;5.728;2023-02-28T05:40:18;11.63;;;3.80;;
71622;SDS011;59473;53.214;5.728;2023-02-28T05:42:46;10.85;;;4.15;;
71622;SDS011;59473;53.214;5.728;2023-02-28T05:45:12;8.17;;;4.37;;
71622;SDS011;59473;53.214;5.728;2023-02-28T05:47:37;13.30;;;3.53;;
71622;SDS011;59473;53.214;5.728;2023-02-28T05:50:03;13.33;;;3.53;;
71622;SDS011;59473;53.214;5.728;2023-02-28T05:52:28;10.70;;;3.28;;
71622;SDS011;59473;53.214;5.728;2023-02-28T05:54:55;9.95;;;3.40;;
71622;SDS011;59473;53.214;5.728;2023-02-28T05:57:20;10.00;;;4.43;;
71622;SDS011;59473;53.214;5.728;2023-02-28T05:59:45;8.90;;;4.40;;
71622;SDS011;59473;53.214;5.728;2023-02-28T06:02:11;11.43;;;4.70;;
71622;SDS011;59473;53.214;5.728;2023-02-28T06:04:37;10.27;;;4.45;;
71622;SDS011;59473;53.214;5.728;2023-02-28T06:07:03;9.17;;;4.20;;
71622;SDS011;59473;53.214;5.728;2023-02-28T06:09:28;13.30;;;4.27;;
71622;SDS011;59473;53.214;5.728;2023-02-28T06:11:54;14.97;;;3.80;;
71622;SDS011;59473;53.214;5.728;2023-02-28T06:14:19;10.23;;;4.10;;
71622;SDS011;59473;53.214;5.728;2023-02-28T06:16:45;10.00;;;3.60;;
71622;SDS011;59473;53.214;5.728;2023-02-28T06:19:10;9.73;;;3.20;;
71622;SDS011;59473;53.214;5.728;2023-02-28T06:21:35;11.70;;;3.97;;
71622;SDS011;59473;53.214;5.728;2023-02-28T06:24:01;13.43;;;4.00;;
71622;SDS011;59473;53.214;5.728;2023-02-28T06:26:27;12.93;;;3.72;;
71622;SDS011;59473;53.214;5.728;2023-02-28T06:28:52;14.23;;;3.57;;
71622;SDS011;59473;53.214;5.728;2023-02-28T06:31:17;15.63;;;4.13;;
71622;SDS011;59473;53.214;5.728;2023-02-28T06:33:43;10.07;;;3.93;;
71622;SDS011;59473;53.214;5.728;2023-02-28T06:36:09;13.70;;;4.25;;
71622;SDS011;59473;53.214;5.728;2023-02-28T06:38:35;13.55;;;4.13;;
71622;SDS011;59473;53.214;5.728;2023-02-28T06:41:01;18.07;;;7.53;;
71622;SDS011;59473;53.214;5.728;2023-02-28T06:43:30;12.48;;;7.22;;
71622;SDS011;59473;53.214;5.728;2023-02-28T06:45:57;14.40;;;7.18;;
71622;SDS011;59473;53.214;5.728;2023-02-28T06:48:23;12.55;;;6.57;;
71622;SDS011;59473;53.214;5.728;2023-02-28T06:50:48;11.10;;;7.28;;
71622;SDS011;59473;53.214;5.728;2023-02-28T06:53:14;11.93;;;6.70;;
71622;SDS011;59473;53.214;5.728;2023-02-28T06:55:39;12.87;;;7.93;;
71622;SDS011;59473;53.214;5.728;2023-02-28T06:58:05;9.63;;;6.67;;
71622;SDS011;59473;53.214;5.728;2023-02-28T07:00:39;12.07;;;6.97;;
71622;SDS011;59473;53.214;5.728;2023-02-28T07:03:05;12.27;;;7.17;;
71622;SDS011;59473;53.214;5.728;2023-02-28T07:05:30;12.03;;;7.97;;
71622;SDS011;59473;53.214;5.728;2023-02-28T07:07:55;10.73;;;7.50;;
71622;SDS011;59473;53.214;5.728;2023-02-28T07:10:21;11.50;;;7.40;;
71622;SDS011;59473;53.214;5.728;2023-02-28T07:12:47;11.40;;;8.07;;
71622;SDS011;59473;53.214;5.728;2023-02-28T07:15:12;11.47;;;8.60;;
71622;SDS011;59473;53.214;5.728;2023-02-28T07:17:37;11.17;;;8.13;;
71622;SDS011;59473;53.214;5.728;2023-02-28T07:20:03;12.00;;;8.37;;
71622;SDS011;59473;53.214;5.728;2023-02-28T07:22:29;15.43;;;9.85;;
71622;SDS011;59473;53.214;5.728;2023-02-28T07:24:54;15.13;;;9.77;;
71622;SDS011;59473;53.214;5.728;2023-02-28T07:27:19;16.63;;;9.70;;
71622;SDS011;59473;53.214;5.728;2023-02-28T07:29:51;15.07;;;10.00;;
71622;SDS011;59473;53.214;5.728;2023-02-28T07:32:16;17.13;;;10.70;;
71622;SDS011;59473;53.214;5.728;2023-02-28T07:34:41;13.73;;;9.23;;
71622;SDS011;59473;53.214;5.728;2023-02-28T07:37:06;16.17;;;9.97;;
71622;SDS011;59473;53.214;5.728;2023-02-28T07:39:31;25.03;;;15.03;;
71622;SDS011;59473;53.214;5.728;2023-02-28T07:41:57;19.10;;;11.83;;
71622;SDS011;59473;53.214;5.728;2023-02-28T07:44:22;19.97;;;12.97;;
71622;SDS011;59473;53.214;5.728;2023-02-28T07:46:47;17.00;;;10.93;;
71622;SDS011;59473;53.214;5.728;2023-02-28T07:49:12;17.10;;;10.87;;
71622;SDS011;59473;53.214;5.728;2023-02-28T07:51:38;28.50;;;16.57;;
71622;SDS011;59473;53.214;5.728;2023-02-28T07:54:03;37.90;;;21.07;;
71622;SDS011;59473;53.214;5.728;2023-02-28T07:56:28;19.00;;;12.77;;
71622;SDS011;59473;53.214;5.728;2023-02-28T07:58:53;16.60;;;11.53;;
71622;SDS011;59473;53.214;5.728;2023-02-28T08:01:19;29.30;;;21.67;;
71622;SDS011;59473;53.214;5.728;2023-02-28T08:03:44;31.53;;;18.83;;
71622;SDS011;59473;53.214;5.728;2023-02-28T08:06:15;61.37;;;30.57;;
71622;SDS011;59473;53.214;5.728;2023-02-28T08:08:41;167.68;;;64.40;;
71622;SDS011;59473;53.214;5.728;2023-02-28T08:11:06;217.77;;;84.07;;
71622;SDS011;59473;53.214;5.728;2023-02-28T08:13:31;250.73;;;92.37;;
71622;SDS011;59473;53.214;5.728;2023-02-28T08:15:57;40.50;;;22.80;;
71622;SDS011;59473;53.214;5.728;2023-02-28T08:18:22;22.67;;;16.70;;
71622;SDS011;59473;53.214;5.728;2023-02-28T08:20:47;23.57;;;16.87;;
71622;SDS011;59473;53.214;5.728;2023-02-28T08:23:13;19.03;;;12.13;;
71622;SDS011;59473;53.214;5.728;2023-02-28T08:25:38;29.53;;;18.03;;
71622;SDS011;59473;53.214;5.728;2023-02-28T08:28:03;20.40;;;13.20;;
71622;SDS011;59473;53.214;5.728;2023-02-28T08:30:28;19.07;;;11.93;;
71622;SDS011;59473;53.214;5.728;2023-02-28T08:32:54;21.47;;;12.90;;
71622;SDS011;59473;53.214;5.728;2023-02-28T08:35:20;20.67;;;13.07;;
71622;SDS011;59473;53.214;5.728;2023-02-28T08:37:47;21.30;;;12.87;;
71622;SDS011;59473;53.214;5.728;2023-02-28T08:40:12;18.45;;;11.25;;
71622;SDS011;59473;53.214;5.728;2023-02-28T08:42:42;20.48;;;12.00;;
71622;SDS011;59473;53.214;5.728;2023-02-28T08:45:08;20.00;;;12.63;;
71622;SDS011;59473;53.214;5.728;2023-02-28T08:47:33;18.43;;;11.67;;
71622;SDS011;59473;53.214;5.728;2023-02-28T08:49:58;18.47;;;11.70;;
71622;SDS011;59473;53.214;5.728;2023-02-28T08:52:23;21.90;;;12.37;;
71622;SDS011;59473;53.214;5.728;2023-02-28T08:54:49;21.70;;;13.00;;
71622;SDS011;59473;53.214;5.728;2023-02-28T08:57:14;20.77;;;12.93;;
71622;SDS011;59473;53.214;5.728;2023-02-28T08:59:39;20.73;;;12.43;;
71622;SDS011;59473;53.214;5.728;2023-02-28T09:02:04;18.37;;;12.23;;
71622;SDS011;59473;53.214;5.728;2023-02-28T09:04:30;19.50;;;12.10;;
71622;SDS011;59473;53.214;5.728;2023-02-28T09:06:58;18.55;;;12.15;;
71622;SDS011;59473;53.214;5.728;2023-02-28T09:09:23;18.20;;;11.90;;
71622;SDS011;59473;53.214;5.728;2023-02-28T09:11:48;14.57;;;10.10;;
71622;SDS011;59473;53.214;5.728;2023-02-28T09:14:13;16.80;;;11.23;;
71622;SDS011;59473;53.214;5.728;2023-02-28T09:16:39;16.33;;;10.10;;
71622;SDS011;59473;53.214;5.728;2023-02-28T09:19:04;17.83;;;11.20;;
71622;SDS011;59473;53.214;5.728;2023-02-28T09:21:29;17.03;;;10.93;;
71622;SDS011;59473;53.214;5.728;2023-02-28T09:23:54;18.93;;;11.33;;
71622;SDS011;59473;53.214;5.728;2023-02-28T09:26:23;17.33;;;10.37;;
71622;SDS011;59473;53.214;5.728;2023-02-28T09:28:49;14.77;;;9.95;;
71622;SDS011;59473;53.214;5.728;2023-02-28T09:31:19;15.77;;;10.53;;
71622;SDS011;59473;53.214;5.728;2023-02-28T09:33:48;16.55;;;10.88;;
71622;SDS011;59473;53.214;5.728;2023-02-28T09:36:13;16.80;;;11.27;;
71622;SDS011;59473;53.214;5.728;2023-02-28T09:38:39;40.43;;;20.27;;
71622;SDS011;59473;53.214;5.728;2023-02-28T09:41:11;56.42;;;28.95;;
71622;SDS011;59473;53.214;5.728;2023-02-28T09:43:38;15.43;;;9.47;;
71622;SDS011;59473;53.214;5.728;2023-02-28T09:46:12;15.25;;;9.30;;
71622;SDS011;59473;53.214;5.728;2023-02-28T09:48:40;16.67;;;10.30;;
71622;SDS011;59473;53.214;5.728;2023-02-28T09:53:48;31.10;;;13.48;;
71622;SDS011;59473;53.214;5.728;2023-02-28T09:56:15;21.13;;;11.50;;
71622;SDS011;59473;53.214;5.728;2023-02-28T10:01:16;13.43;;;8.48;;
71622;SDS011;59473;53.214;5.728;2023-02-28T10:03:46;14.48;;;8.48;;
71622;SDS011;59473;53.214;5.728;2023-02-28T10:06:19;13.57;;;8.38;;
71622;SDS011;59473;53.214;5.728;2023-02-28T10:09:01;11.95;;;8.75;;
71622;SDS011;59473;53.214;5.728;2023-02-28T10:11:27;13.03;;;8.13;;
71622;SDS011;59473;53.214;5.728;2023-02-28T10:13:54;13.40;;;7.95;;
71622;SDS011;59473;53.214;5.728;2023-02-28T10:16:31;12.63;;;8.75;;
71622;SDS011;59473;53.214;5.728;2023-02-28T10:21:28;13.75;;;8.50;;
71622;SDS011;59473;53.214;5.728;2023-02-28T10:23:56;12.00;;;8.13;;
71622;SDS011;59473;53.214;5.728;2023-02-28T10:26:24;18.13;;;8.27;;
71622;SDS011;59473;53.214;5.728;2023-02-28T10:28:51;11.95;;;8.00;;
71622;SDS011;59473;53.214;5.728;2023-02-28T10:31:18;13.60;;;7.57;;
71622;SDS011;59473;53.214;5.728;2023-02-28T10:33:44;13.38;;;7.55;;
71622;SDS011;59473;53.214;5.728;2023-02-28T10:36:14;17.70;;;8.00;;
71622;SDS011;59473;53.214;5.728;2023-02-28T10:38:40;12.43;;;7.90;;
71622;SDS011;59473;53.214;5.728;2023-02-28T10:41:09;13.20;;;8.10;;
71622;SDS011;59473;53.214;5.728;2023-02-28T10:43:36;12.38;;;8.25;;
71622;SDS011;59473;53.214;5.728;2023-02-28T10:48:30;11.15;;;7.05;;
71622;SDS011;59473;53.214;5.728;2023-02-28T10:50:57;11.90;;;6.90;;
71622;SDS011;59473;53.214;5.728;2023-02-28T11:01:20;12.68;;;6.60;;
71622;SDS011;59473;53.214;5.728;2023-02-28T11:03:46;11.80;;;6.90;;
71622;SDS011;59473;53.214;5.728;2023-02-28T11:06:13;18.38;;;11.32;;
71622;SDS011;59473;53.214;5.728;2023-02-28T11:08:43;12.23;;;6.25;;
71622;SDS011;59473;53.214;5.728;2023-02-28T11:11:09;10.50;;;6.37;;
71622;SDS011;59473;53.214;5.728;2023-02-28T11:13:35;9.87;;;6.17;;
71622;SDS011;59473;53.214;5.728;2023-02-28T11:16:04;10.70;;;5.82;;
71622;SDS011;59473;53.214;5.728;2023-02-28T11:18:32;19.17;;;12.85;;
71622;SDS011;59473;53.214;5.728;2023-02-28T11:21:01;13.10;;;6.07;;
71622;SDS011;59473;53.214;5.728;2023-02-28T11:23:27;10.23;;;5.80;;
71622;SDS011;59473;53.214;5.728;2023-02-28T11:25:54;10.73;;;6.60;;
71622;SDS011;59473;53.214;5.728;2023-02-28T11:31:00;7.80;;;5.43;;
71622;SDS011;59473;53.214;5.728;2023-02-28T11:35:55;10.10;;;5.20;;
71622;SDS011;59473;53.214;5.728;2023-02-28T11:38:23;8.88;;;5.25;;
71622;SDS011;59473;53.214;5.728;2023-02-28T11:48:54;8.67;;;4.93;;
71622;SDS011;59473;53.214;5.728;2023-02-28T11:51:31;7.30;;;4.47;;
71622;SDS011;59473;53.214;5.728;2023-02-28T11:56:44;8.73;;;4.47;;
71622;SDS011;59473;53.214;5.728;2023-02-28T11:59:30;9.63;;;5.55;;
71622;SDS011;59473;53.214;5.728;2023-02-28T12:07:16;9.00;;;5.22;;
71622;SDS011;59473;53.214;5.728;2023-02-28T12:09:53;8.53;;;5.07;;
71622;SDS011;59473;53.214;5.728;2023-02-28T12:12:30;9.18;;;5.78;;
71622;SDS011;59473;53.214;5.728;2023-02-28T12:17:35;13.43;;;6.45;;
71622;SDS011;59473;53.214;5.728;2023-02-28T12:22:52;31.30;;;15.87;;
71622;SDS011;59473;53.214;5.728;2023-02-28T12:27:47;10.60;;;5.70;;
71622;SDS011;59473;53.214;5.728;2023-02-28T12:30:26;9.82;;;4.93;;
71622;SDS011;59473;53.214;5.728;2023-02-28T12:32:56;7.00;;;4.47;;
71622;SDS011;59473;53.214;5.728;2023-02-28T12:36:05;12.60;;;10.50;;
71622;SDS011;59473;53.214;5.728;2023-02-28T12:40:42;9.27;;;5.57;;
71622;SDS011;59473;53.214;5.728;2023-02-28T12:43:08;8.15;;;4.50;;
71622;SDS011;59473;53.214;5.728;2023-02-28T12:45:42;9.10;;;4.32;;
71622;SDS011;59473;53.214;5.728;2023-02-28T12:48:09;7.25;;;3.85;;
71622;SDS011;59473;53.214;5.728;2023-02-28T12:50:36;6.78;;;4.20;;
71622;SDS011;59473;53.214;5.728;2023-02-28T13:00:29;9.48;;;4.38;;
71622;SDS011;59473;53.214;5.728;2023-02-28T13:06:20;6.82;;;4.80;;
71622;SDS011;59473;53.214;5.728;2023-02-28T13:09:03;8.03;;;4.53;;
71622;SDS011;59473;53.214;5.728;2023-02-28T13:11:34;8.50;;;4.93;;
71622;SDS011;59473;53.214;5.728;2023-02-28T13:14:03;9.18;;;5.28;;
71622;SDS011;59473;53.214;5.728;2023-02-28T13:16:47;8.15;;;4.57;;
71622;SDS011;59473;53.214;5.728;2023-02-28T13:19:16;7.07;;;4.43;;
71622;SDS011;59473;53.214;5.728;2023-02-28T13:21:43;7.73;;;4.40;;
71622;SDS011;59473;53.214;5.728;2023-02-28T13:24:09;9.45;;;5.07;;
71622;SDS011;59473;53.214;5.728;2023-02-28T13:31:29;7.13;;;4.13;;
71622;SDS011;59473;53.214;5.728;2023-02-28T13:38:54;9.68;;;5.03;;
71622;SDS011;59473;53.214;5.728;2023-02-28T13:46:31;7.35;;;4.30;;
71622;SDS011;59473;53.214;5.728;2023-02-28T13:49:17;7.72;;;5.05;;
71622;SDS011;59473;53.214;5.728;2023-02-28T13:51:43;8.50;;;4.93;;
71622;SDS011;59473;53.214;5.728;2023-02-28T13:54:16;8.40;;;4.70;;
71622;SDS011;59473;53.214;5.728;2023-02-28T13:56:47;9.38;;;5.32;;
71622;SDS011;59473;53.214;5.728;2023-02-28T14:07:23;7.37;;;4.67;;
71622;SDS011;59473;53.214;5.728;2023-02-28T14:10:01;7.40;;;5.00;;
71622;SDS011;59473;53.214;5.728;2023-02-28T14:15:27;9.27;;;4.70;;
71622;SDS011;59473;53.214;5.728;2023-02-28T14:17:54;9.98;;;5.05;;
71622;SDS011;59473;53.214;5.728;2023-02-28T14:20:20;7.47;;;4.60;;
71622;SDS011;59473;53.214;5.728;2023-02-28T14:31:04;7.97;;;4.47;;
71622;SDS011;59473;53.214;5.728;2023-02-28T14:36:06;10.45;;;4.40;;
71622;SDS011;59473;53.214;5.728;2023-02-28T14:38:33;10.60;;;5.00;;
71622;SDS011;59473;53.214;5.728;2023-02-28T14:41:00;8.03;;;4.83;;
71622;SDS011;59473;53.214;5.728;2023-02-28T14:43:27;10.82;;;6.28;;
71622;SDS011;59473;53.214;5.728;2023-02-28T14:45:57;8.00;;;4.78;;
71622;SDS011;59473;53.214;5.728;2023-02-28T14:48:23;7.90;;;4.75;;
71622;SDS011;59473;53.214;5.728;2023-02-28T14:50:51;7.45;;;4.70;;
71622;SDS011;59473;53.214;5.728;2023-02-28T14:53:20;7.93;;;4.97;;
71622;SDS011;59473;53.214;5.728;2023-02-28T14:55:47;9.18;;;4.72;;
71622;SDS011;59473;53.214;5.728;2023-02-28T14:58:20;9.48;;;6.00;;
71622;SDS011;59473;53.214;5.728;2023-02-28T15:00:47;9.80;;;5.20;;
71622;SDS011;59473;53.214;5.728;2023-02-28T15:03:20;8.77;;;4.88;;
71622;SDS011;59473;53.214;5.728;2023-02-28T15:05:53;7.83;;;4.90;;
71622;SDS011;59473;53.214;5.728;2023-02-28T15:08:18;8.40;;;4.68;;
71622;SDS011;59473;53.214;5.728;2023-02-28T15:10:49;9.23;;;5.20;;
71622;SDS011;59473;53.214;5.728;2023-02-28T15:13:15;12.40;;;7.57;;
71622;SDS011;59473;53.214;5.728;2023-02-28T15:15:43;9.18;;;6.43;;
71622;SDS011;59473;53.214;5.728;2023-02-28T15:18:53;10.30;;;7.63;;
71622;SDS011;59473;53.214;5.728;2023-02-28T15:21:02;12.52;;;7.20;;
71622;SDS011;59473;53.214;5.728;2023-02-28T15:23:28;11.70;;;7.65;;
71622;SDS011;59473;53.214;5.728;2023-02-28T15:25:54;12.43;;;8.38;;
71622;SDS011;59473;53.214;5.728;2023-02-28T15:28:20;13.27;;;8.53;;
71622;SDS011;59473;53.214;5.728;2023-02-28T15:30:50;12.50;;;8.52;;
71622;SDS011;59473;53.214;5.728;2023-02-28T15:35:41;13.77;;;9.00;;
71622;SDS011;59473;53.214;5.728;2023-02-28T15:38:18;12.10;;;9.63;;
71622;SDS011;59473;53.214;5.728;2023-02-28T15:40:44;12.85;;;8.40;;
71622;SDS011;59473;53.214;5.728;2023-02-28T15:43:14;11.57;;;7.63;;
71622;SDS011;59473;53.214;5.728;2023-02-28T15:48:11;11.65;;;8.10;;
71622;SDS011;59473;53.214;5.728;2023-02-28T15:50:38;13.43;;;8.52;;
71622;SDS011;59473;53.214;5.728;2023-02-28T15:53:03;11.60;;;8.40;;
71622;SDS011;59473;53.214;5.728;2023-02-28T15:55:28;13.77;;;8.20;;
71622;SDS011;59473;53.214;5.728;2023-02-28T15:57:55;11.40;;;7.70;;
71622;SDS011;59473;53.214;5.728;2023-02-28T16:00:25;11.68;;;7.85;;
71622;SDS011;59473;53.214;5.728;2023-02-28T16:02:50;13.40;;;9.70;;
71622;SDS011;59473;53.214;5.728;2023-02-28T16:05:29;11.57;;;8.00;;
71622;SDS011;59473;53.214;5.728;2023-02-28T16:07:58;11.23;;;7.40;;
71622;SDS011;59473;53.214;5.728;2023-02-28T16:10:24;12.77;;;7.57;;
71622;SDS011;59473;53.214;5.728;2023-02-28T16:12:52;12.93;;;8.30;;
71622;SDS011;59473;53.214;5.728;2023-02-28T16:15:21;12.85;;;8.95;;
71622;SDS011;59473;53.214;5.728;2023-02-28T16:17:47;13.38;;;8.40;;
71622;SDS011;59473;53.214;5.728;2023-02-28T16:20:20;12.77;;;8.70;;
71622;SDS011;59473;53.214;5.728;2023-02-28T16:22:46;11.82;;;7.47;;
71622;SDS011;59473;53.214;5.728;2023-02-28T16:25:15;10.57;;;7.17;;
71622;SDS011;59473;53.214;5.728;2023-02-28T16:27:40;10.90;;;7.35;;
71622;SDS011;59473;53.214;5.728;2023-02-28T16:30:07;13.57;;;7.70;;
71622;SDS011;59473;53.214;5.728;2023-02-28T16:32:35;15.27;;;8.77;;
71622;SDS011;59473;53.214;5.728;2023-02-28T16:35:01;13.98;;;8.10;;
71622;SDS011;59473;53.214;5.728;2023-02-28T16:37:27;12.87;;;8.40;;
71622;SDS011;59473;53.214;5.728;2023-02-28T16:39:52;12.45;;;8.30;;
71622;SDS011;59473;53.214;5.728;2023-02-28T16:42:25;13.40;;;7.80;;
71622;SDS011;59473;53.214;5.728;2023-02-28T16:44:52;12.05;;;8.35;;
71622;SDS011;59473;53.214;5.728;2023-02-28T16:47:17;13.13;;;8.77;;